sensor_id;sensor_type;location;lat;lon;timestamp;P1;durP1;ratioP1;P2;durP2;ratioP2
53959;SDS011;39866;48.638;-2.020;2023-09-08T00:01:47;7.28;;;5.32;;
53959;SDS011;39866;48.638;-2.020;2023-09-08T00:04:13;6.85;;;5.00;;
53959;SDS011;39866;48.638;-2.020;2023-09-08T00:06:39;8.23;;;5.18;;
53959;SDS011;39866;48.638;-2.020;2023-09-08T00:09:05;7.70;;;4.93;;
53959;SDS011;39866;48.638;-2.020;2023-09-08T00:11:30;8.95;;;4.75;;
53959;SDS011;39866;48.638;-2.020;2023-09-08T00:13:56;10.52;;;4.90;;
53959;SDS011;39866;48.638;-2.020;2023-09-08T00:16:21;6.47;;;4.70;;
53959;SDS011;39866;48.638;-2.020;2023-09-08T00:18:46;6.95;;;4.95;;
53959;SDS011;39866;48.638;-2.020;2023-09-08T00:21:12;6.35;;;5.50;;
53959;SDS011;39866;48.638;-2.020;2023-09-08T00:23:37;7.10;;;5.60;;
53959;SDS011;39866;48.638;-2.020;2023-09-08T00:26:02;8.93;;;5.63;;
53959;SDS011;39866;48.638;-2.020;2023-09-08T00:28:28;10.23;;;6.15;;
53959;SDS011;39866;48.638;-2.020;2023-09-08T00:30:53;10.05;;;6.43;;
53959;SDS011;39866;48.638;-2.020;2023-09-08T00:33:18;8.07;;;5.63;;
53959;SDS011;39866;48.638;-2.020;2023-09-08T00:35:44;9.63;;;5.80;;
53959;SDS011;39866;48.638;-2.020;2023-09-08T00:38:10;8.95;;;5.72;;
53959;SDS011;39866;48.638;-2.020;2023-09-08T00:40:35;9.05;;;5.28;;
53959;SDS011;39866;48.638;-2.020;2023-09-08T00:43:00;7.57;;;5.47;;
53959;SDS011;39866;48.638;-2.020;2023-09-08T00:45:26;10.90;;;5.60;;
53959;SDS011;39866;48.638;-2.020;2023-09-08T00:47:54;8.50;;;5.35;;
53959;SDS011;39866;48.638;-2.020;2023-09-08T00:50:20;8.35;;;5.47;;
53959;SDS011;39866;48.638;-2.020;2023-09-08T00:52:45;8.32;;;5.63;;
53959;SDS011;39866;48.638;-2.020;2023-09-08T00:55:10;7.32;;;5.30;;
53959;SDS011;39866;48.638;-2.020;2023-09-08T00:57:36;6.93;;;4.72;;
53959;SDS011;39866;48.638;-2.020;2023-09-08T01:00:02;8.35;;;4.90;;
53959;SDS011;39866;48.638;-2.020;2023-09-08T01:02:30;8.13;;;4.70;;
53959;SDS011;39866;48.638;-2.020;2023-09-08T01:04:57;9.38;;;4.88;;
53959;SDS011;39866;48.638;-2.020;2023-09-08T01:07:24;9.95;;;4.95;;
53959;SDS011;39866;48.638;-2.020;2023-09-08T01:09:52;9.68;;;4.60;;
53959;SDS011;39866;48.638;-2.020;2023-09-08T01:12:18;11.40;;;5.03;;
53959;SDS011;39866;48.638;-2.020;2023-09-08T01:14:44;7.35;;;4.65;;
53959;SDS011;39866;48.638;-2.020;2023-09-08T01:17:09;6.75;;;4.65;;
53959;SDS011;39866;48.638;-2.020;2023-09-08T01:19:37;6.40;;;4.65;;
53959;SDS011;39866;48.638;-2.020;2023-09-08T01:27:28;7.43;;;4.47;;
53959;SDS011;39866;48.638;-2.020;2023-09-08T01:29:57;7.20;;;4.72;;
53959;SDS011;39866;48.638;-2.020;2023-09-08T01:32:23;10.45;;;5.43;;
53959;SDS011;39866;48.638;-2.020;2023-09-08T01:34:50;7.43;;;5.18;;
53959;SDS011;39866;48.638;-2.020;2023-09-08T01:37:16;5.90;;;4.60;;
53959;SDS011;39866;48.638;-2.020;2023-09-08T01:39:42;6.78;;;4.70;;
53959;SDS011;39866;48.638;-2.020;2023-09-08T01:42:07;7.07;;;4.57;;
53959;SDS011;39866;48.638;-2.020;2023-09-08T01:44:32;5.90;;;4.40;;
53959;SDS011;39866;48.638;-2.020;2023-09-08T01:46:58;6.60;;;4.60;;
53959;SDS011;39866;48.638;-2.020;2023-09-08T01:49:23;6.60;;;5.10;;
53959;SDS011;39866;48.638;-2.020;2023-09-08T01:51:49;7.63;;;4.95;;
53959;SDS011;39866;48.638;-2.020;2023-09-08T01:54:15;8.05;;;5.20;;
53959;SDS011;39866;48.638;-2.020;2023-09-08T01:56:41;8.27;;;5.53;;
53959;SDS011;39866;48.638;-2.020;2023-09-08T01:59:06;9.75;;;5.28;;
53959;SDS011;39866;48.638;-2.020;2023-09-08T02:01:31;8.07;;;5.00;;
53959;SDS011;39866;48.638;-2.020;2023-09-08T02:03:57;6.95;;;4.90;;
53959;SDS011;39866;48.638;-2.020;2023-09-08T02:06:22;8.90;;;5.07;;
53959;SDS011;39866;48.638;-2.020;2023-09-08T02:08:47;6.80;;;4.88;;
53959;SDS011;39866;48.638;-2.020;2023-09-08T02:11:12;9.70;;;5.10;;
53959;SDS011;39866;48.638;-2.020;2023-09-08T02:13:38;8.40;;;5.30;;
53959;SDS011;39866;48.638;-2.020;2023-09-08T02:16:06;8.00;;;4.93;;
53959;SDS011;39866;48.638;-2.020;2023-09-08T02:18:32;6.70;;;5.25;;
53959;SDS011;39866;48.638;-2.020;2023-09-08T02:20:57;9.48;;;5.15;;
53959;SDS011;39866;48.638;-2.020;2023-09-08T02:23:23;10.02;;;4.85;;
53959;SDS011;39866;48.638;-2.020;2023-09-08T02:25:48;6.10;;;4.57;;
53959;SDS011;39866;48.638;-2.020;2023-09-08T02:28:13;7.32;;;5.00;;
53959;SDS011;39866;48.638;-2.020;2023-09-08T02:30:38;8.00;;;4.90;;
53959;SDS011;39866;48.638;-2.020;2023-09-08T02:33:04;8.23;;;4.90;;
53959;SDS011;39866;48.638;-2.020;2023-09-08T02:35:30;8.52;;;4.60;;
53959;SDS011;39866;48.638;-2.020;2023-09-08T02:37:55;8.10;;;5.05;;
53959;SDS011;39866;48.638;-2.020;2023-09-08T02:40:20;7.00;;;4.88;;
53959;SDS011;39866;48.638;-2.020;2023-09-08T02:42:46;10.48;;;5.28;;
53959;SDS011;39866;48.638;-2.020;2023-09-08T02:45:11;8.27;;;4.90;;
53959;SDS011;39866;48.638;-2.020;2023-09-08T02:47:36;9.00;;;4.93;;
53959;SDS011;39866;48.638;-2.020;2023-09-08T02:50:02;6.60;;;4.65;;
53959;SDS011;39866;48.638;-2.020;2023-09-08T02:52:29;7.07;;;4.75;;
53959;SDS011;39866;48.638;-2.020;2023-09-08T02:54:55;7.65;;;5.00;;
53959;SDS011;39866;48.638;-2.020;2023-09-08T02:57:20;8.88;;;5.97;;
53959;SDS011;39866;48.638;-2.020;2023-09-08T02:59:49;9.13;;;6.57;;
53959;SDS011;39866;48.638;-2.020;2023-09-08T03:02:16;14.40;;;8.50;;
53959;SDS011;39866;48.638;-2.020;2023-09-08T03:04:41;9.48;;;7.45;;
53959;SDS011;39866;48.638;-2.020;2023-09-08T03:07:06;10.00;;;7.30;;
53959;SDS011;39866;48.638;-2.020;2023-09-08T03:09:33;8.00;;;7.20;;
53959;SDS011;39866;48.638;-2.020;2023-09-08T03:11:59;8.40;;;7.38;;
53959;SDS011;39866;48.638;-2.020;2023-09-08T03:14:24;10.20;;;8.57;;
53959;SDS011;39866;48.638;-2.020;2023-09-08T03:16:49;7.35;;;6.40;;
53959;SDS011;39866;48.638;-2.020;2023-09-08T03:19:15;9.30;;;6.97;;
53959;SDS011;39866;48.638;-2.020;2023-09-08T03:21:40;9.65;;;6.90;;
53959;SDS011;39866;48.638;-2.020;2023-09-08T03:24:06;9.23;;;7.80;;
53959;SDS011;39866;48.638;-2.020;2023-09-08T03:26:31;8.35;;;7.15;;
53959;SDS011;39866;48.638;-2.020;2023-09-08T03:28:56;11.52;;;8.32;;
53959;SDS011;39866;48.638;-2.020;2023-09-08T03:31:22;8.27;;;7.20;;
53959;SDS011;39866;48.638;-2.020;2023-09-08T03:33:47;9.07;;;6.60;;
53959;SDS011;39866;48.638;-2.020;2023-09-08T03:36:12;9.48;;;6.97;;
53959;SDS011;39866;48.638;-2.020;2023-09-08T03:38:38;7.60;;;6.80;;
53959;SDS011;39866;48.638;-2.020;2023-09-08T03:41:03;7.88;;;6.80;;
53959;SDS011;39866;48.638;-2.020;2023-09-08T03:43:28;9.13;;;6.65;;
53959;SDS011;39866;48.638;-2.020;2023-09-08T03:45:54;8.70;;;6.30;;
53959;SDS011;39866;48.638;-2.020;2023-09-08T03:48:19;9.77;;;7.00;;
53959;SDS011;39866;48.638;-2.020;2023-09-08T03:50:44;9.55;;;7.20;;
53959;SDS011;39866;48.638;-2.020;2023-09-08T03:53:10;8.90;;;6.80;;
53959;SDS011;39866;48.638;-2.020;2023-09-08T03:55:37;10.52;;;7.53;;
53959;SDS011;39866;48.638;-2.020;2023-09-08T03:58:02;8.25;;;7.10;;
53959;SDS011;39866;48.638;-2.020;2023-09-08T04:00:27;9.55;;;6.80;;
53959;SDS011;39866;48.638;-2.020;2023-09-08T04:02:53;11.57;;;7.50;;
53959;SDS011;39866;48.638;-2.020;2023-09-08T04:05:19;12.43;;;7.95;;
53959;SDS011;39866;48.638;-2.020;2023-09-08T04:07:45;9.80;;;8.15;;
53959;SDS011;39866;48.638;-2.020;2023-09-08T04:10:10;9.68;;;7.55;;
53959;SDS011;39866;48.638;-2.020;2023-09-08T04:12:36;9.35;;;6.70;;
53959;SDS011;39866;48.638;-2.020;2023-09-08T04:15:01;11.90;;;7.07;;
53959;SDS011;39866;48.638;-2.020;2023-09-08T04:17:27;7.72;;;6.90;;
53959;SDS011;39866;48.638;-2.020;2023-09-08T04:19:52;9.40;;;6.65;;
53959;SDS011;39866;48.638;-2.020;2023-09-08T04:22:17;10.38;;;7.43;;
53959;SDS011;39866;48.638;-2.020;2023-09-08T04:24:42;8.82;;;6.68;;
53959;SDS011;39866;48.638;-2.020;2023-09-08T04:27:08;6.50;;;5.90;;
53959;SDS011;39866;48.638;-2.020;2023-09-08T04:29:35;9.25;;;6.18;;
53959;SDS011;39866;48.638;-2.020;2023-09-08T04:32:01;7.25;;;5.47;;
53959;SDS011;39866;48.638;-2.020;2023-09-08T04:34:33;7.65;;;5.50;;
53959;SDS011;39866;48.638;-2.020;2023-09-08T04:37:00;8.60;;;5.53;;
53959;SDS011;39866;48.638;-2.020;2023-09-08T04:39:25;9.48;;;5.55;;
53959;SDS011;39866;48.638;-2.020;2023-09-08T04:41:50;8.50;;;5.80;;
53959;SDS011;39866;48.638;-2.020;2023-09-08T04:44:16;7.28;;;5.40;;
53959;SDS011;39866;48.638;-2.020;2023-09-08T04:46:41;11.13;;;6.70;;
53959;SDS011;39866;48.638;-2.020;2023-09-08T04:49:06;7.50;;;5.28;;
53959;SDS011;39866;48.638;-2.020;2023-09-08T04:51:32;7.63;;;5.00;;
53959;SDS011;39866;48.638;-2.020;2023-09-08T04:53:57;7.78;;;5.53;;
53959;SDS011;39866;48.638;-2.020;2023-09-08T04:56:22;9.48;;;5.35;;
53959;SDS011;39866;48.638;-2.020;2023-09-08T04:58:48;8.30;;;5.63;;
53959;SDS011;39866;48.638;-2.020;2023-09-08T05:01:13;7.85;;;5.07;;
53959;SDS011;39866;48.638;-2.020;2023-09-08T05:03:38;9.10;;;5.63;;
53959;SDS011;39866;48.638;-2.020;2023-09-08T05:06:03;8.10;;;5.22;;
53959;SDS011;39866;48.638;-2.020;2023-09-08T05:08:29;9.18;;;5.20;;
53959;SDS011;39866;48.638;-2.020;2023-09-08T05:10:55;7.85;;;5.57;;
53959;SDS011;39866;48.638;-2.020;2023-09-08T05:13:20;7.53;;;5.18;;
53959;SDS011;39866;48.638;-2.020;2023-09-08T05:15:51;9.63;;;5.57;;
53959;SDS011;39866;48.638;-2.020;2023-09-08T05:18:17;7.45;;;5.80;;
53959;SDS011;39866;48.638;-2.020;2023-09-08T05:20:42;7.28;;;5.47;;
53959;SDS011;39866;48.638;-2.020;2023-09-08T05:23:08;7.80;;;5.50;;
53959;SDS011;39866;48.638;-2.020;2023-09-08T05:25:33;9.18;;;5.57;;
53959;SDS011;39866;48.638;-2.020;2023-09-08T05:27:58;9.35;;;6.55;;
53959;SDS011;39866;48.638;-2.020;2023-09-08T05:30:25;7.53;;;6.72;;
53959;SDS011;39866;48.638;-2.020;2023-09-08T05:32:50;8.82;;;7.22;;
53959;SDS011;39866;48.638;-2.020;2023-09-08T05:35:16;10.32;;;8.90;;
53959;SDS011;39866;48.638;-2.020;2023-09-08T05:37:41;12.00;;;10.63;;
53959;SDS011;39866;48.638;-2.020;2023-09-08T05:40:07;11.60;;;10.40;;
53959;SDS011;39866;48.638;-2.020;2023-09-08T05:42:32;11.50;;;10.27;;
53959;SDS011;39866;48.638;-2.020;2023-09-08T05:44:58;11.30;;;10.00;;
53959;SDS011;39866;48.638;-2.020;2023-09-08T05:47:23;13.95;;;11.05;;
53959;SDS011;39866;48.638;-2.020;2023-09-08T05:49:48;11.35;;;9.40;;
53959;SDS011;39866;48.638;-2.020;2023-09-08T05:52:13;12.30;;;9.82;;
53959;SDS011;39866;48.638;-2.020;2023-09-08T05:54:39;10.98;;;9.80;;
53959;SDS011;39866;48.638;-2.020;2023-09-08T05:57:05;11.20;;;8.90;;
53959;SDS011;39866;48.638;-2.020;2023-09-08T05:59:31;9.55;;;7.93;;
53959;SDS011;39866;48.638;-2.020;2023-09-08T06:01:56;9.50;;;8.27;;
53959;SDS011;39866;48.638;-2.020;2023-09-08T06:04:21;11.00;;;7.95;;
53959;SDS011;39866;48.638;-2.020;2023-09-08T06:06:47;12.65;;;8.57;;
53959;SDS011;39866;48.638;-2.020;2023-09-08T06:09:12;10.15;;;7.95;;
53959;SDS011;39866;48.638;-2.020;2023-09-08T06:11:39;9.25;;;7.93;;
53959;SDS011;39866;48.638;-2.020;2023-09-08T06:14:05;10.60;;;7.25;;
53959;SDS011;39866;48.638;-2.020;2023-09-08T06:16:30;12.65;;;7.28;;
53959;SDS011;39866;48.638;-2.020;2023-09-08T06:18:55;10.90;;;6.90;;
53959;SDS011;39866;48.638;-2.020;2023-09-08T06:21:21;7.95;;;6.40;;
53959;SDS011;39866;48.638;-2.020;2023-09-08T06:23:46;9.98;;;7.53;;
53959;SDS011;39866;48.638;-2.020;2023-09-08T06:26:12;12.30;;;9.60;;
53959;SDS011;39866;48.638;-2.020;2023-09-08T06:28:37;9.68;;;8.43;;
53959;SDS011;39866;48.638;-2.020;2023-09-08T06:31:04;9.98;;;8.38;;
53959;SDS011;39866;48.638;-2.020;2023-09-08T06:33:29;14.85;;;9.63;;
53959;SDS011;39866;48.638;-2.020;2023-09-08T06:35:54;20.65;;;10.57;;
53959;SDS011;39866;48.638;-2.020;2023-09-08T06:38:20;12.82;;;11.30;;
53959;SDS011;39866;48.638;-2.020;2023-09-08T06:40:45;10.85;;;9.75;;
53959;SDS011;39866;48.638;-2.020;2023-09-08T06:43:10;11.65;;;10.30;;
53959;SDS011;39866;48.638;-2.020;2023-09-08T06:45:39;12.50;;;10.88;;
53959;SDS011;39866;48.638;-2.020;2023-09-08T06:48:07;13.63;;;11.38;;
53959;SDS011;39866;48.638;-2.020;2023-09-08T06:50:33;15.85;;;13.18;;
53959;SDS011;39866;48.638;-2.020;2023-09-08T06:52:58;13.48;;;12.07;;
53959;SDS011;39866;48.638;-2.020;2023-09-08T06:55:25;13.60;;;11.90;;
53959;SDS011;39866;48.638;-2.020;2023-09-08T06:57:50;15.70;;;14.10;;
53959;SDS011;39866;48.638;-2.020;2023-09-08T07:00:16;16.95;;;12.60;;
53959;SDS011;39866;48.638;-2.020;2023-09-08T07:02:42;14.40;;;11.45;;
53959;SDS011;39866;48.638;-2.020;2023-09-08T07:05:08;13.93;;;12.27;;
53959;SDS011;39866;48.638;-2.020;2023-09-08T07:07:34;13.18;;;11.77;;
53959;SDS011;39866;48.638;-2.020;2023-09-08T07:10:00;14.02;;;11.82;;
53959;SDS011;39866;48.638;-2.020;2023-09-08T07:12:25;14.27;;;11.85;;
53959;SDS011;39866;48.638;-2.020;2023-09-08T07:14:51;14.43;;;12.82;;
53959;SDS011;39866;48.638;-2.020;2023-09-08T07:17:16;18.15;;;14.07;;
53959;SDS011;39866;48.638;-2.020;2023-09-08T07:19:41;15.32;;;13.55;;
53959;SDS011;39866;48.638;-2.020;2023-09-08T07:22:06;16.50;;;13.23;;
53959;SDS011;39866;48.638;-2.020;2023-09-08T07:24:32;16.80;;;13.10;;
53959;SDS011;39866;48.638;-2.020;2023-09-08T07:26:57;13.93;;;12.30;;
53959;SDS011;39866;48.638;-2.020;2023-09-08T07:29:22;13.65;;;12.18;;
53959;SDS011;39866;48.638;-2.020;2023-09-08T07:31:48;12.65;;;10.93;;
53959;SDS011;39866;48.638;-2.020;2023-09-08T07:34:13;15.90;;;11.80;;
53959;SDS011;39866;48.638;-2.020;2023-09-08T07:36:38;14.98;;;12.27;;
53959;SDS011;39866;48.638;-2.020;2023-09-08T07:39:04;13.88;;;11.65;;
53959;SDS011;39866;48.638;-2.020;2023-09-08T07:41:29;12.98;;;10.65;;
53959;SDS011;39866;48.638;-2.020;2023-09-08T07:43:54;12.82;;;10.18;;
53959;SDS011;39866;48.638;-2.020;2023-09-08T07:46:20;12.90;;;11.18;;
53959;SDS011;39866;48.638;-2.020;2023-09-08T07:48:45;12.43;;;10.98;;
53959;SDS011;39866;48.638;-2.020;2023-09-08T07:51:10;15.18;;;10.50;;
53959;SDS011;39866;48.638;-2.020;2023-09-08T07:53:36;12.40;;;10.75;;
53959;SDS011;39866;48.638;-2.020;2023-09-08T07:56:01;11.38;;;10.20;;
53959;SDS011;39866;48.638;-2.020;2023-09-08T07:58:26;13.90;;;11.88;;
53959;SDS011;39866;48.638;-2.020;2023-09-08T08:00:52;13.43;;;11.02;;
53959;SDS011;39866;48.638;-2.020;2023-09-08T08:03:17;16.77;;;11.50;;
53959;SDS011;39866;48.638;-2.020;2023-09-08T08:05:42;16.73;;;12.98;;
53959;SDS011;39866;48.638;-2.020;2023-09-08T08:08:08;17.58;;;14.75;;
53959;SDS011;39866;48.638;-2.020;2023-09-08T08:10:34;14.43;;;11.30;;
53959;SDS011;39866;48.638;-2.020;2023-09-08T08:13:00;15.07;;;13.48;;
53959;SDS011;39866;48.638;-2.020;2023-09-08T08:15:34;15.02;;;13.43;;
53959;SDS011;39866;48.638;-2.020;2023-09-08T08:18:01;11.95;;;10.75;;
53959;SDS011;39866;48.638;-2.020;2023-09-08T08:20:26;13.60;;;10.88;;
53959;SDS011;39866;48.638;-2.020;2023-09-08T08:22:52;13.10;;;11.65;;
53959;SDS011;39866;48.638;-2.020;2023-09-08T08:25:17;13.50;;;10.07;;
53959;SDS011;39866;48.638;-2.020;2023-09-08T08:27:42;11.98;;;9.88;;
53959;SDS011;39866;48.638;-2.020;2023-09-08T08:30:08;12.85;;;10.38;;
53959;SDS011;39866;48.638;-2.020;2023-09-08T08:32:34;10.93;;;9.63;;
53959;SDS011;39866;48.638;-2.020;2023-09-08T08:34:59;12.50;;;10.82;;
53959;SDS011;39866;48.638;-2.020;2023-09-08T08:37:25;13.93;;;9.80;;
53959;SDS011;39866;48.638;-2.020;2023-09-08T08:39:50;14.32;;;10.65;;
53959;SDS011;39866;48.638;-2.020;2023-09-08T08:42:16;13.07;;;10.27;;
53959;SDS011;39866;48.638;-2.020;2023-09-08T08:44:41;14.57;;;9.77;;
53959;SDS011;39866;48.638;-2.020;2023-09-08T08:47:07;12.52;;;10.10;;
53959;SDS011;39866;48.638;-2.020;2023-09-08T08:49:34;14.10;;;11.15;;
53959;SDS011;39866;48.638;-2.020;2023-09-08T08:52:01;12.88;;;10.52;;
53959;SDS011;39866;48.638;-2.020;2023-09-08T08:54:32;12.70;;;10.45;;
53959;SDS011;39866;48.638;-2.020;2023-09-08T08:56:59;13.98;;;10.57;;
53959;SDS011;39866;48.638;-2.020;2023-09-08T08:59:25;13.82;;;10.20;;
53959;SDS011;39866;48.638;-2.020;2023-09-08T09:01:51;13.93;;;10.77;;
53959;SDS011;39866;48.638;-2.020;2023-09-08T09:04:16;13.90;;;10.77;;
53959;SDS011;39866;48.638;-2.020;2023-09-08T09:06:42;11.30;;;9.98;;
53959;SDS011;39866;48.638;-2.020;2023-09-08T09:09:08;18.38;;;10.90;;
53959;SDS011;39866;48.638;-2.020;2023-09-08T09:11:35;15.65;;;11.20;;
53959;SDS011;39866;48.638;-2.020;2023-09-08T09:14:01;15.30;;;11.13;;
53959;SDS011;39866;48.638;-2.020;2023-09-08T09:16:27;13.02;;;10.60;;
53959;SDS011;39866;48.638;-2.020;2023-09-08T09:18:53;13.68;;;10.93;;
53959;SDS011;39866;48.638;-2.020;2023-09-08T09:21:20;15.98;;;11.30;;
53959;SDS011;39866;48.638;-2.020;2023-09-08T09:23:46;18.40;;;11.65;;
53959;SDS011;39866;48.638;-2.020;2023-09-08T09:26:11;16.27;;;11.60;;
53959;SDS011;39866;48.638;-2.020;2023-09-08T09:28:48;15.25;;;10.65;;
53959;SDS011;39866;48.638;-2.020;2023-09-08T09:31:13;15.07;;;10.10;;
53959;SDS011;39866;48.638;-2.020;2023-09-08T09:33:39;13.65;;;9.38;;
53959;SDS011;39866;48.638;-2.020;2023-09-08T09:36:04;13.52;;;10.23;;
53959;SDS011;39866;48.638;-2.020;2023-09-08T09:38:30;13.98;;;10.15;;
53959;SDS011;39866;48.638;-2.020;2023-09-08T09:40:56;12.38;;;10.52;;
53959;SDS011;39866;48.638;-2.020;2023-09-08T09:43:22;15.68;;;11.82;;
53959;SDS011;39866;48.638;-2.020;2023-09-08T09:45:48;14.32;;;10.50;;
53959;SDS011;39866;48.638;-2.020;2023-09-08T09:48:13;10.93;;;9.30;;
53959;SDS011;39866;48.638;-2.020;2023-09-08T09:50:39;10.63;;;9.52;;
53959;SDS011;39866;48.638;-2.020;2023-09-08T09:53:13;11.63;;;9.15;;
53959;SDS011;39866;48.638;-2.020;2023-09-08T09:55:40;9.30;;;8.32;;
53959;SDS011;39866;48.638;-2.020;2023-09-08T09:58:08;10.23;;;8.70;;
53959;SDS011;39866;48.638;-2.020;2023-09-08T10:00:35;12.20;;;9.50;;
53959;SDS011;39866;48.638;-2.020;2023-09-08T10:03:02;10.80;;;9.43;;
53959;SDS011;39866;48.638;-2.020;2023-09-08T10:05:29;12.88;;;9.50;;
53959;SDS011;39866;48.638;-2.020;2023-09-08T10:07:54;10.98;;;9.45;;
53959;SDS011;39866;48.638;-2.020;2023-09-08T10:10:20;10.45;;;8.73;;
53959;SDS011;39866;48.638;-2.020;2023-09-08T10:12:53;15.27;;;10.40;;
53959;SDS011;39866;48.638;-2.020;2023-09-08T10:15:23;12.50;;;9.88;;
53959;SDS011;39866;48.638;-2.020;2023-09-08T10:17:58;10.80;;;9.65;;
53959;SDS011;39866;48.638;-2.020;2023-09-08T10:20:28;13.70;;;10.95;;
53959;SDS011;39866;48.638;-2.020;2023-09-08T10:22:57;13.52;;;10.48;;
53959;SDS011;39866;48.638;-2.020;2023-09-08T10:25:45;11.18;;;9.50;;
53959;SDS011;39866;48.638;-2.020;2023-09-08T10:28:18;12.50;;;10.02;;
53959;SDS011;39866;48.638;-2.020;2023-09-08T10:30:44;11.50;;;10.00;;
53959;SDS011;39866;48.638;-2.020;2023-09-08T10:33:10;10.85;;;9.73;;
53959;SDS011;39866;48.638;-2.020;2023-09-08T10:35:36;15.05;;;10.80;;
53959;SDS011;39866;48.638;-2.020;2023-09-08T10:38:47;15.63;;;11.90;;
53959;SDS011;39866;48.638;-2.020;2023-09-08T10:40:52;14.70;;;10.48;;
53959;SDS011;39866;48.638;-2.020;2023-09-08T10:43:18;13.02;;;11.40;;
53959;SDS011;39866;48.638;-2.020;2023-09-08T10:45:45;14.65;;;13.07;;
53959;SDS011;39866;48.638;-2.020;2023-09-08T10:48:11;14.80;;;11.80;;
53959;SDS011;39866;48.638;-2.020;2023-09-08T10:50:39;16.48;;;13.13;;
53959;SDS011;39866;48.638;-2.020;2023-09-08T10:53:18;17.08;;;12.63;;
53959;SDS011;39866;48.638;-2.020;2023-09-08T10:55:48;11.70;;;10.23;;
53959;SDS011;39866;48.638;-2.020;2023-09-08T10:58:20;12.63;;;10.88;;
53959;SDS011;39866;48.638;-2.020;2023-09-08T11:00:53;15.27;;;11.63;;
53959;SDS011;39866;48.638;-2.020;2023-09-08T11:03:28;11.60;;;10.15;;
53959;SDS011;39866;48.638;-2.020;2023-09-08T11:06:14;11.18;;;9.18;;
53959;SDS011;39866;48.638;-2.020;2023-09-08T11:08:41;10.57;;;8.90;;
53959;SDS011;39866;48.638;-2.020;2023-09-08T11:11:09;11.63;;;9.02;;
53959;SDS011;39866;48.638;-2.020;2023-09-08T11:13:36;13.88;;;12.43;;
53959;SDS011;39866;48.638;-2.020;2023-09-08T11:16:01;11.27;;;9.55;;
53959;SDS011;39866;48.638;-2.020;2023-09-08T11:18:28;13.50;;;10.32;;
53959;SDS011;39866;48.638;-2.020;2023-09-08T11:20:54;12.10;;;9.68;;
53959;SDS011;39866;48.638;-2.020;2023-09-08T11:23:21;12.68;;;10.18;;
53959;SDS011;39866;48.638;-2.020;2023-09-08T11:25:47;14.02;;;10.88;;
53959;SDS011;39866;48.638;-2.020;2023-09-08T11:28:14;14.50;;;11.02;;
53959;SDS011;39866;48.638;-2.020;2023-09-08T11:30:39;12.38;;;10.48;;
53959;SDS011;39866;48.638;-2.020;2023-09-08T11:33:13;10.10;;;7.95;;
53959;SDS011;39866;48.638;-2.020;2023-09-08T11:35:42;11.40;;;8.50;;
53959;SDS011;39866;48.638;-2.020;2023-09-08T11:38:11;11.90;;;9.70;;
53959;SDS011;39866;48.638;-2.020;2023-09-08T11:40:36;10.70;;;8.07;;
53959;SDS011;39866;48.638;-2.020;2023-09-08T11:43:02;10.98;;;9.75;;
53959;SDS011;39866;48.638;-2.020;2023-09-08T11:45:29;11.25;;;8.48;;
53959;SDS011;39866;48.638;-2.020;2023-09-08T11:47:55;12.82;;;9.63;;
53959;SDS011;39866;48.638;-2.020;2023-09-08T11:50:21;11.35;;;9.02;;
53959;SDS011;39866;48.638;-2.020;2023-09-08T11:52:48;12.68;;;10.10;;
53959;SDS011;39866;48.638;-2.020;2023-09-08T11:55:15;10.18;;;8.65;;
53959;SDS011;39866;48.638;-2.020;2023-09-08T11:57:43;12.93;;;10.80;;
53959;SDS011;39866;48.638;-2.020;2023-09-08T12:00:12;12.73;;;9.10;;
53959;SDS011;39866;48.638;-2.020;2023-09-08T12:02:43;11.68;;;9.90;;
53959;SDS011;39866;48.638;-2.020;2023-09-08T12:05:12;11.20;;;8.35;;
53959;SDS011;39866;48.638;-2.020;2023-09-08T12:07:39;11.73;;;8.77;;
53959;SDS011;39866;48.638;-2.020;2023-09-08T12:10:10;9.80;;;8.73;;
53959;SDS011;39866;48.638;-2.020;2023-09-08T12:12:46;11.90;;;9.35;;
53959;SDS011;39866;48.638;-2.020;2023-09-08T12:18:02;10.38;;;8.85;;
53959;SDS011;39866;48.638;-2.020;2023-09-08T12:20:29;12.00;;;8.55;;
53959;SDS011;39866;48.638;-2.020;2023-09-08T12:22:57;13.20;;;11.25;;
53959;SDS011;39866;48.638;-2.020;2023-09-08T12:25:24;13.15;;;9.45;;
53959;SDS011;39866;48.638;-2.020;2023-09-08T12:27:49;12.90;;;10.23;;
53959;SDS011;39866;48.638;-2.020;2023-09-08T12:30:20;11.32;;;9.13;;
53959;SDS011;39866;48.638;-2.020;2023-09-08T12:32:47;14.50;;;8.75;;
53959;SDS011;39866;48.638;-2.020;2023-09-08T12:35:19;12.43;;;11.13;;
53959;SDS011;39866;48.638;-2.020;2023-09-08T12:37:47;10.45;;;9.30;;
53959;SDS011;39866;48.638;-2.020;2023-09-08T12:40:13;11.98;;;8.70;;
53959;SDS011;39866;48.638;-2.020;2023-09-08T12:42:40;9.27;;;7.95;;
53959;SDS011;39866;48.638;-2.020;2023-09-08T12:45:06;10.68;;;8.43;;
53959;SDS011;39866;48.638;-2.020;2023-09-08T12:47:31;13.23;;;11.93;;
53959;SDS011;39866;48.638;-2.020;2023-09-08T12:49:57;12.55;;;10.48;;
53959;SDS011;39866;48.638;-2.020;2023-09-08T12:52:22;13.88;;;10.27;;
53959;SDS011;39866;48.638;-2.020;2023-09-08T12:54:47;15.40;;;10.20;;
53959;SDS011;39866;48.638;-2.020;2023-09-08T12:57:13;12.25;;;10.52;;
53959;SDS011;39866;48.638;-2.020;2023-09-08T12:59:38;15.32;;;9.95;;
53959;SDS011;39866;48.638;-2.020;2023-09-08T13:02:04;12.60;;;11.30;;
53959;SDS011;39866;48.638;-2.020;2023-09-08T13:04:29;14.88;;;10.00;;
53959;SDS011;39866;48.638;-2.020;2023-09-08T13:06:54;12.40;;;10.90;;
53959;SDS011;39866;48.638;-2.020;2023-09-08T13:09:20;11.82;;;9.20;;
53959;SDS011;39866;48.638;-2.020;2023-09-08T13:11:46;10.57;;;8.65;;
53959;SDS011;39866;48.638;-2.020;2023-09-08T13:14:11;14.27;;;12.55;;
53959;SDS011;39866;48.638;-2.020;2023-09-08T13:16:37;11.10;;;8.52;;
53959;SDS011;39866;48.638;-2.020;2023-09-08T13:19:02;11.23;;;10.02;;
53959;SDS011;39866;48.638;-2.020;2023-09-08T13:21:28;16.80;;;10.82;;
53959;SDS011;39866;48.638;-2.020;2023-09-08T13:23:53;9.38;;;8.38;;
53959;SDS011;39866;48.638;-2.020;2023-09-08T13:26:18;16.85;;;13.52;;
53959;SDS011;39866;48.638;-2.020;2023-09-08T13:28:44;12.15;;;10.10;;
53959;SDS011;39866;48.638;-2.020;2023-09-08T13:31:09;19.02;;;14.23;;
53959;SDS011;39866;48.638;-2.020;2023-09-08T13:33:34;11.02;;;9.80;;
53959;SDS011;39866;48.638;-2.020;2023-09-08T13:36:00;10.20;;;9.07;;
53959;SDS011;39866;48.638;-2.020;2023-09-08T13:38:25;14.65;;;11.68;;
53959;SDS011;39866;48.638;-2.020;2023-09-08T13:40:51;13.18;;;11.57;;
53959;SDS011;39866;48.638;-2.020;2023-09-08T13:43:17;11.23;;;9.48;;
53959;SDS011;39866;48.638;-2.020;2023-09-08T13:45:43;15.38;;;12.07;;
53959;SDS011;39866;48.638;-2.020;2023-09-08T13:48:08;15.00;;;13.40;;
53959;SDS011;39866;48.638;-2.020;2023-09-08T13:50:34;14.80;;;12.38;;
53959;SDS011;39866;48.638;-2.020;2023-09-08T13:52:59;14.13;;;12.25;;
53959;SDS011;39866;48.638;-2.020;2023-09-08T13:55:24;12.73;;;10.85;;
53959;SDS011;39866;48.638;-2.020;2023-09-08T13:57:50;12.52;;;11.32;;
53959;SDS011;39866;48.638;-2.020;2023-09-08T14:00:16;13.70;;;11.60;;
53959;SDS011;39866;48.638;-2.020;2023-09-08T14:02:42;11.88;;;9.98;;
53959;SDS011;39866;48.638;-2.020;2023-09-08T14:05:08;14.13;;;11.90;;
53959;SDS011;39866;48.638;-2.020;2023-09-08T14:07:33;13.18;;;11.77;;
53959;SDS011;39866;48.638;-2.020;2023-09-08T14:09:59;10.90;;;9.77;;
53959;SDS011;39866;48.638;-2.020;2023-09-08T14:12:26;9.50;;;8.50;;
53959;SDS011;39866;48.638;-2.020;2023-09-08T14:14:51;10.00;;;8.20;;
53959;SDS011;39866;48.638;-2.020;2023-09-08T14:17:17;11.65;;;9.40;;
53959;SDS011;39866;48.638;-2.020;2023-09-08T14:19:42;10.73;;;9.65;;
53959;SDS011;39866;48.638;-2.020;2023-09-08T14:22:07;10.18;;;7.95;;
53959;SDS011;39866;48.638;-2.020;2023-09-08T14:24:33;12.98;;;10.02;;